Time;durP1;ratioP1;P1;durP2;ratioP2;P2;SDS_P1;SDS_P2;PMS_P1;PMS_P2;Temp;Humidity;BMP_temperature;BMP_pressure;BME280_temperature;BME280_humidity;BME280_pressure;Samples;Min_cycle;Max_cycle;Signal;HPM_P1;HPM_P2
2022/02/04 00:03:19;;;;;;;;;;;;;;;24.62;31.64;97042.03;174530;28;1099;-56
2022/02/04 00:06:40;;;;;;;;;;;;;;;24.66;31.52;97027.66;174001;28;1010;-57
2022/02/04 00:09:18;;;;;;;;;;;;;;;24.65;31.82;97039.16;173326;28;924;-56
2022/02/04 00:20:09;;;;;;;;;;;;;;;24.69;31.71;97037.09;172696;28;4380;-56
2022/02/04 00:20:14;;;;;;;;;;;;;;;24.62;31.56;97028.84;173791;28;947;-56
2022/02/04 00:20:15;;;;;;;;;;;;;;;24.65;31.70;97039.16;173880;28;667;-56
2022/02/04 00:20:35;;;;;;;;;;;;;;;24.58;31.72;97040.63;173701;28;1621;-57
2022/02/04 00:20:53;;;;;;;;;;;;;;;24.58;31.45;97038.00;173687;28;1069;-56
2022/02/04 00:22:44;;;;;;;;;;;;;;;24.59;31.78;97031.75;173249;28;707;-56
2022/02/04 00:23:25;;;;;;;;;;;;;;;24.59;31.50;97034.41;173167;28;1082;-57
2022/02/04 00:23:32;;;;;;;;;;;;;;;24.62;31.71;97030.66;173196;28;1456;-55
2022/02/04 00:23:37;;;;;;;;;;;;;;;24.63;31.54;97042.88;173554;28;1168;-56
2022/02/04 00:23:44;;;;;;;;;;;;;;;24.63;31.70;97041.06;173997;28;871;-55
2022/02/04 00:23:50;;;;;;;;;;;;;;;24.64;31.61;97040.09;173500;28;1145;-56
2022/02/04 00:23:58;;;;;;;;;;;;;;;24.65;31.80;97041.81;173263;28;872;-56
2022/02/04 00:24:05;;;;;;;;;;;;;;;24.64;31.64;97037.47;173100;28;997;-56
2022/02/04 00:24:13;;;;;;;;;;;;;;;24.65;31.64;97041.81;173260;28;1196;-57
2022/02/04 00:24:20;;;;;;;;;;;;;;;24.66;31.83;97038.19;173557;28;912;-57
2022/02/04 00:24:25;;;;;;;;;;;;;;;24.66;31.53;97034.72;173686;28;1137;-55
2022/02/04 00:24:30;;;;;;;;;;;;;;;24.66;31.59;97042.63;173916;28;805;-56
2022/02/04 00:24:35;;;;;;;;;;;;;;;24.67;31.83;97039.03;173563;28;1176;-56
2022/02/04 00:24:40;;;;;;;;;;;;;;;24.68;31.78;97033.63;173239;28;865;-55
2022/02/04 00:24:46;;;;;;;;;;;;;;;24.69;31.53;97037.09;173314;28;952;-57
2022/02/04 00:24:51;;;;;;;;;;;;;;;24.70;31.48;97042.25;173312;28;972;-56
2022/02/04 00:25:00;;;;;;;;;;;;;;;24.70;31.74;97042.25;173236;28;1189;-56
2022/02/04 00:25:14;;;;;;;;;;;;;;;24.71;31.59;97037.81;173256;28;921;-56
2022/02/04 00:26:36;;;;;;;;;;;;;;;24.73;31.32;97039.38;172434;28;1102;-56
2022/02/04 00:26:37;;;;;;;;;;;;;;;24.76;31.23;97036.47;173822;28;4571;-56
2022/02/04 00:26:49;;;;;;;;;;;;;;;24.75;31.56;97037.44;174435;28;1502;-56
2022/02/04 00:27:01;;;;;;;;;;;;;;;24.76;31.56;97038.25;174448;28;1104;-55
2022/02/04 00:27:13;;;;;;;;;;;;;;;24.76;31.55;97039.09;174452;28;954;-56
2022/02/04 00:27:22;;;;;;;;;;;;;;;24.78;31.23;97039.81;174291;28;1018;-55
2022/02/04 00:27:28;;;;;;;;;;;;;;;24.82;31.50;97043.03;173796;28;865;-57
2022/02/04 00:27:33;;;;;;;;;;;;;;;24.82;31.52;97037.75;174269;28;1145;-56
2022/02/04 00:27:38;;;;;;;;;;;;;;;24.82;31.19;97037.75;174534;28;971;-55
2022/02/04 00:27:44;;;;;;;;;;;;;;;24.83;31.13;97044.69;174490;28;1217;-56
2022/02/04 00:27:50;;;;;;;;;;;;;;;24.83;31.30;97035.94;174544;28;864;-56
2022/02/04 00:28:00;;;;;;;;;;;;;;;24.84;31.35;97040.25;174451;28;1177;-56
2022/02/04 00:28:11;;;;;;;;;;;;;;;24.83;31.35;97035.94;174544;28;1033;-56
2022/02/04 00:28:40;;;;;;;;;;;;;;;24.84;31.10;97040.25;173805;28;892;-55
2022/02/04 00:29:05;;;;;;;;;;;;;;;24.83;31.27;97041.22;174168;28;1066;-55
2022/02/04 00:29:19;;;;;;;;;;;;;;;24.86;30.99;97040.97;173942;28;900;-57
2022/02/04 00:29:31;;;;;;;;;;;;;;;24.86;31.27;97035.69;173859;28;821;-54
2022/02/04 00:29:48;;;;;;;;;;;;;;;24.85;31.30;97037.50;173238;28;876;-55
2022/02/04 00:30:31;;;;;;;;;;;;;;;24.88;31.35;97045.13;174296;28;4306;-55
2022/02/04 00:30:31;;;;;;;;;;;;;;;24.88;31.21;97039.03;173586;28;924;-55
2022/02/04 00:30:41;;;;;;;;;;;;;;;24.86;31.20;97044.44;173716;28;1354;-55
2022/02/04 00:30:59;;;;;;;;;;;;;;;24.82;31.62;97044.84;173776;28;884;-54
2022/02/04 00:31:38;;;;;;;;;;;;;;;24.86;31.02;97043.59;173163;28;703;-55
2022/02/04 00:31:49;;;;;;;;;;;;;;;24.85;31.40;97041.94;173790;28;841;-55
2022/02/04 00:32:01;;;;;;;;;;;;;;;24.85;31.05;97045.41;173131;28;921;-55
2022/02/04 00:32:09;;;;;;;;;;;;;;;24.85;31.47;97044.56;173171;28;971;-54
2022/02/04 00:32:18;;;;;;;;;;;;;;;24.85;31.22;97048.03;173344;28;1407;-55
2022/02/04 00:32:26;;;;;;;;;;;;;;;24.84;31.25;97045.53;173816;28;1902;-54
2022/02/04 00:32:33;;;;;;;;;;;;;;;24.84;31.43;97035.00;174016;28;1083;-55
2022/02/04 00:32:42;;;;;;;;;;;;;;;24.84;31.40;97037.63;173721;28;1122;-55
2022/02/04 00:32:49;;;;;;;;;;;;;;;24.85;31.40;97049.84;173280;28;896;-56
2022/02/04 00:32:58;;;;;;;;;;;;;;;24.82;31.13;97040.41;173269;28;841;-55
2022/02/04 00:33:05;;;;;;;;;;;;;;;24.82;31.24;97045.66;173068;28;1069;-57
2022/02/04 00:33:12;;;;;;;;;;;;;;;24.82;31.26;97043.03;173245;28;862;-54
2022/02/04 00:33:18;;;;;;;;;;;;;;;24.83;31.15;97043.88;173295;28;889;-55
2022/02/04 00:33:25;;;;;;;;;;;;;;;24.82;31.60;97036.94;173238;28;833;-56
2022/02/04 00:33:33;;;;;;;;;;;;;;;24.83;31.40;97039.44;173264;28;607;-55
2022/02/04 00:33:41;;;;;;;;;;;;;;;24.83;31.19;97039.44;173481;28;958;-56
2022/02/04 00:33:49;;;;;;;;;;;;;;;24.84;31.17;97042.91;173033;28;1705;-56
2022/02/04 00:34:00;;;;;;;;;;;;;;;24.85;31.27;97036.66;173762;28;841;-54
2022/02/04 00:34:13;;;;;;;;;;;;;;;24.85;31.25;97041.94;173463;28;4395;-57
2022/02/04 00:34:20;;;;;;;;;;;;;;;24.85;31.39;97044.56;173241;28;1783;-58
2022/02/04 00:34:34;;;;;;;;;;;;;;;24.87;31.44;97038.19;173199;28;1169;-56
2022/02/04 00:34:46;;;;;;;;;;;;;;;24.86;31.27;97043.59;173582;28;922;-58
2022/02/04 00:35:01;;;;;;;;;;;;;;;24.85;31.20;97040.13;173210;28;958;-56
2022/02/04 00:35:20;;;;;;;;;;;;;;;24.86;31.33;97043.59;173265;28;904;-55
2022/02/04 00:35:38;;;;;;;;;;;;;;;24.88;31.32;97041.66;173672;28;1093;-57
2022/02/04 00:35:53;;;;;;;;;;;;;;;24.86;31.09;97044.44;173333;28;935;-56
2022/02/04 00:36:07;;;;;;;;;;;;;;;24.87;31.12;97042.63;173446;28;891;-56
2022/02/04 00:36:41;;;;;;;;;;;;;;;24.83;31.35;97051.78;173905;28;971;-55
2022/02/04 00:37:44;;;;;;;;;;;;;;;24.84;31.34;97050.81;175510;28;977;-57
2022/02/04 00:38:00;;;;;;;;;;;;;;;24.79;31.53;97054.66;173676;28;901;-55
2022/02/04 00:38:28;;;;;;;;;;;;;;;24.81;31.23;97045.81;173337;28;699;-57
2022/02/04 00:38:37;;;;;;;;;;;;;;;24.82;31.04;97043.03;173184;28;1120;-56
2022/02/04 00:38:46;;;;;;;;;;;;;;;24.82;31.33;97047.47;173351;28;955;-55
2022/02/04 00:38:55;;;;;;;;;;;;;;;24.79;31.27;97051.19;173852;28;813;-56
2022/02/04 00:39:05;;;;;;;;;;;;;;;24.81;31.51;97054.56;173578;28;1005;-55
2022/02/04 00:39:15;;;;;;;;;;;;;;;24.81;31.48;97049.28;173899;28;927;-56
2022/02/04 00:39:29;;;;;;;;;;;;;;;24.79;31.16;97046.75;173241;28;1307;-57
2022/02/04 00:39:43;;;;;;;;;;;;;;;24.83;31.35;97049.13;173889;28;861;-56
2022/02/04 00:39:56;;;;;;;;;;;;;;;24.81;31.25;97045.81;173835;28;932;-57
2022/02/04 00:40:11;;;;;;;;;;;;;;;24.79;31.11;97049.38;173422;28;984;-57
2022/02/04 00:40:20;;;;;;;;;;;;;;;24.78;31.51;97047.72;173386;28;1011;-56
2022/02/04 00:40:28;;;;;;;;;;;;;;;24.78;31.28;97045.06;173871;28;1629;-56
2022/02/04 00:40:38;;;;;;;;;;;;;;;24.79;31.54;97048.53;173482;28;939;-55
2022/02/04 00:40:46;;;;;;;;;;;;;;;24.82;31.19;97050.94;173221;28;1132;-56
2022/02/04 00:40:58;;;;;;;;;;;;;;;24.83;31.06;97054.41;173314;28;986;-56
2022/02/04 00:41:09;;;;;;;;;;;;;;;24.82;31.34;97048.31;173314;28;1082;-56
2022/02/04 00:41:18;;;;;;;;;;;;;;;24.81;31.29;97049.28;173823;28;1195;-55
2022/02/04 00:41:28;;;;;;;;;;;;;;;24.84;31.34;97045.53;173161;28;632;-56
2022/02/04 00:41:37;;;;;;;;;;;;;;;24.84;31.14;97049.00;173207;28;880;-54
2022/02/04 00:41:43;;;;;;;;;;;;;;;24.85;31.19;97052.47;173806;28;1373;-55
2022/02/04 00:41:50;;;;;;;;;;;;;;;24.86;31.08;97052.34;173953;28;852;-55
2022/02/04 00:42:00;;;;;;;;;;;;;;;24.85;31.38;97047.19;173738;28;833;-55
2022/02/04 00:42:09;;;;;;;;;;;;;;;24.85;31.27;97047.19;173267;28;6345;-56
2022/02/04 00:42:14;;;;;;;;;;;;;;;24.84;31.34;97046.38;173655;28;1334;-56
2022/02/04 00:42:19;;;;;;;;;;;;;;;24.85;31.01;97055.13;173294;28;908;-56
2022/02/04 00:42:24;;;;;;;;;;;;;;;24.85;31.25;97055.13;173178;28;893;-56
2022/02/04 00:42:30;;;;;;;;;;;;;;;24.84;31.33;97050.81;173296;28;817;-56
2022/02/04 00:42:35;;;;;;;;;;;;;;;24.84;31.43;97049.00;173242;28;889;-57
2022/02/04 00:42:40;;;;;;;;;;;;;;;24.82;31.30;97053.59;173178;28;1173;-55
2022/02/04 00:42:46;;;;;;;;;;;;;;;24.83;31.16;97051.78;173273;28;723;-55
2022/02/04 00:42:54;;;;;;;;;;;;;;;24.84;31.17;97053.44;173384;28;1022;-57
2022/02/04 00:43:02;;;;;;;;;;;;;;;24.86;31.35;97060.25;173251;28;865;-57
2022/02/04 00:43:11;;;;;;;;;;;;;;;24.85;31.48;97053.31;173271;28;868;-57
2022/02/04 00:43:18;;;;;;;;;;;;;;;24.87;31.33;97051.38;173319;28;1015;-56
2022/02/04 00:43:23;;;;;;;;;;;;;;;24.88;31.37;97062.75;173896;28;888;-56
2022/02/04 00:43:29;;;;;;;;;;;;;;;24.88;31.15;97049.56;173225;28;1179;-56
2022/02/04 00:43:35;;;;;;;;;;;;;;;24.88;31.28;97058.31;173228;28;817;-57
2022/02/04 00:43:42;;;;;;;;;;;;;;;24.88;31.22;97052.22;173898;28;967;-57
2022/02/04 00:43:50;;;;;;;;;;;;;;;24.89;31.14;97053.91;173776;28;955;-56
2022/02/04 00:43:57;;;;;;;;;;;;;;;24.89;31.21;97053.91;173248;28;838;-57
2022/02/04 00:44:04;;;;;;;;;;;;;;;24.88;31.32;97055.69;173035;28;1157;-58
2022/02/04 00:44:23;;;;;;;;;;;;;;;24.90;31.32;97058.22;172885;28;1588;-56
2022/02/04 00:44:30;;;;;;;;;;;;;;;24.89;31.00;97054.75;173242;28;952;-56
2022/02/04 00:44:37;;;;;;;;;;;;;;;24.88;31.34;97058.31;173341;28;1196;-56
2022/02/04 00:44:43;;;;;;;;;;;;;;;24.88;31.20;97049.56;173878;28;880;-56
2022/02/04 00:44:55;;;;;;;;;;;;;;;24.87;30.96;97054.00;173245;28;1026;-56
2022/02/04 00:45:15;;;;;;;;;;;;;;;24.88;31.15;97052.22;173177;28;1125;-56
2022/02/04 00:45:30;;;;;;;;;;;;;;;24.86;30.99;97057.63;173244;28;900;-56
2022/02/04 00:45:46;;;;;;;;;;;;;;;24.87;31.19;97058.47;173516;28;1058;-56
2022/02/04 00:45:59;;;;;;;;;;;;;;;24.87;31.33;97054.00;173258;28;964;-56
2022/02/04 00:46:16;;;;;;;;;;;;;;;24.85;31.14;97053.31;173668;28;1165;-55
2022/02/04 00:46:27;;;;;;;;;;;;;;;24.86;31.32;97052.34;173843;28;1200;-56
2022/02/04 00:46:42;;;;;;;;;;;;;;;24.85;31.06;97057.75;173795;28;1125;-55
2022/02/04 00:47:13;;;;;;;;;;;;;;;24.88;31.32;97052.22;173897;28;749;-56
2022/02/04 00:47:22;;;;;;;;;;;;;;;24.87;31.17;97054.00;174008;28;889;-56
2022/02/04 00:47:31;;;;;;;;;;;;;;;24.87;31.52;97055.81;173891;28;928;-56
2022/02/04 00:47:43;;;;;;;;;;;;;;;24.85;31.15;97052.47;173978;28;954;-56
2022/02/04 00:47:55;;;;;;;;;;;;;;;24.85;31.39;97055.13;173207;28;892;-56
2022/02/04 00:48:26;;;;;;;;;;;;;;;24.85;31.16;97053.31;173522;28;900;-55
2022/02/04 00:48:57;;;;;;;;;;;;;;;24.83;31.37;97055.25;172866;28;1441;-56
2022/02/04 00:49:18;;;;;;;;;;;;;;;24.82;31.64;97058.03;173066;28;993;-56
2022/02/04 00:50:17;;;;;;;;;;;;;;;24.76;31.23;97060.19;173174;28;1136;-56
2022/02/04 00:50:31;;;;;;;;;;;;;;;24.74;31.49;97063.94;173607;28;4292;-56
2022/02/04 00:50:52;;;;;;;;;;;;;;;24.74;31.44;97056.03;174397;28;943;-56
2022/02/04 00:51:08;;;;;;;;;;;;;;;24.73;31.56;97060.47;174463;28;927;-56
2022/02/04 00:52:00;;;;;;;;;;;;;;;24.74;31.62;97059.50;174465;28;880;-56
2022/02/04 00:52:00;;;;;;;;;;;;;;;24.75;31.63;97058.53;172549;28;726;-56
2022/02/04 00:52:49;;;;;;;;;;;;;;;24.76;31.63;97062.84;173853;28;956;-57
2022/02/04 00:53:08;;;;;;;;;;;;;;;24.76;31.52;97062.84;173925;28;931;-56
2022/02/04 00:53:20;;;;;;;;;;;;;;;24.74;31.51;97062.13;173326;28;995;-55
2022/02/04 00:53:44;;;;;;;;;;;;;;;24.75;31.49;97062.97;173846;28;999;-56
2022/02/04 00:53:57;;;;;;;;;;;;;;;24.74;31.62;97063.94;173880;28;947;-56
2022/02/04 00:55:10;;;;;;;;;;;;;;;24.74;31.56;97070.03;173927;28;698;-56
2022/02/04 00:55:32;;;;;;;;;;;;;;;24.71;31.59;97067.63;173181;28;945;-56
2022/02/04 00:56:01;;;;;;;;;;;;;;;24.74;31.21;97056.03;173602;28;1077;-57
2022/02/04 00:56:30;;;;;;;;;;;;;;;24.77;31.64;97069.78;173668;28;1025;-56
2022/02/04 00:56:46;;;;;;;;;;;;;;;24.73;31.47;97065.75;173470;28;1203;-56
2022/02/04 00:57:34;;;;;;;;;;;;;;;24.73;31.38;97067.53;174075;28;1051;-56
2022/02/04 01:13:18;;;;;;;;;;;;;;;24.56;31.81;97071.53;173512;28;775;-57
2022/02/04 01:13:39;;;;;;;;;;;;;;;24.55;31.65;97077.78;173856;28;1164;-57
2022/02/04 01:26:03;;;;;;;;;;;;;;;24.43;32.03;97074.34;173496;28;864;-56
2022/02/04 01:26:11;;;;;;;;;;;;;;;24.43;32.10;97073.53;173151;28;4428;-56
2022/02/04 01:26:18;;;;;;;;;;;;;;;24.43;32.33;97070.88;173484;28;923;-56
2022/02/04 01:26:23;;;;;;;;;;;;;;;24.44;32.15;97076.03;173615;28;1200;-57
2022/02/04 01:26:28;;;;;;;;;;;;;;;24.44;32.01;97067.28;174094;28;837;-56
2022/02/04 01:26:34;;;;;;;;;;;;;;;24.46;32.02;97074.09;174039;28;1027;-56
2022/02/04 01:26:39;;;;;;;;;;;;;;;24.47;32.39;97074.94;173409;28;904;-56
2022/02/04 01:26:44;;;;;;;;;;;;;;;24.48;32.33;97074.81;173448;28;893;-54
2022/02/04 01:26:49;;;;;;;;;;;;;;;24.45;32.03;97072.44;173922;28;1232;-56
2022/02/04 01:26:56;;;;;;;;;;;;;;;24.46;32.14;97075.91;174172;28;770;-55
2022/02/04 01:27:02;;;;;;;;;;;;;;;24.49;32.05;97076.50;173414;28;1176;-55
2022/02/04 01:27:08;;;;;;;;;;;;;;;24.51;32.09;97081.66;173483;28;858;-56
2022/02/04 01:27:14;;;;;;;;;;;;;;;24.52;31.95;97071.94;173975;28;1181;-56
2022/02/04 01:27:19;;;;;;;;;;;;;;;24.54;32.17;97073.47;174178;28;845;-56
2022/02/04 01:27:24;;;;;;;;;;;;;;;24.54;31.88;97073.47;173606;28;1187;-55
2022/02/04 01:27:29;;;;;;;;;;;;;;;24.55;32.23;97072.50;173308;28;901;-56
2022/02/04 01:27:35;;;;;;;;;;;;;;;24.56;31.80;97073.34;173663;28;1173;-55
2022/02/04 01:27:45;;;;;;;;;;;;;;;24.57;32.15;97070.59;174077;28;837;-56
2022/02/04 01:27:50;;;;;;;;;;;;;;;24.59;32.03;97076.56;174092;28;860;-56
2022/02/04 01:27:55;;;;;;;;;;;;;;;24.59;31.73;97073.94;173916;28;809;-56
2022/02/04 01:28:01;;;;;;;;;;;;;;;24.60;32.10;97074.78;173282;28;1248;-56
2022/02/04 01:28:06;;;;;;;;;;;;;;;24.62;31.97;97070.22;173472;28;877;-56
2022/02/04 01:28:11;;;;;;;;;;;;;;;24.62;32.01;97073.69;173822;28;1141;-56
2022/02/04 01:28:16;;;;;;;;;;;;;;;24.64;31.73;97073.53;174207;28;884;-56
2022/02/04 01:28:24;;;;;;;;;;;;;;;24.66;31.65;97079.56;173656;28;1285;-56
2022/02/04 01:28:29;;;;;;;;;;;;;;;24.67;31.80;97074.16;173841;28;877;-55
2022/02/04 01:28:35;;;;;;;;;;;;;;;24.66;31.97;97069.84;173261;28;1157;-56
2022/02/04 01:28:42;;;;;;;;;;;;;;;24.67;31.95;97075.94;173422;28;829;-56
2022/02/04 01:28:48;;;;;;;;;;;;;;;24.68;31.89;97073.19;173871;28;1129;-57
2022/02/04 01:28:54;;;;;;;;;;;;;;;24.68;31.65;97073.19;173511;28;889;-56
2022/02/04 01:28:59;;;;;;;;;;;;;;;24.66;31.97;97071.66;173437;28;1145;-56
2022/02/04 01:29:06;;;;;;;;;;;;;;;24.66;31.89;97076.91;174172;28;892;-56
2022/02/04 01:29:12;;;;;;;;;;;;;;;24.67;31.66;97073.31;173414;28;1184;-56
2022/02/04 01:29:18;;;;;;;;;;;;;;;24.68;31.58;97073.19;173494;28;821;-56
2022/02/04 01:29:26;;;;;;;;;;;;;;;24.70;31.63;97076.50;173988;28;1105;-56
2022/02/04 01:29:38;;;;;;;;;;;;;;;24.70;31.65;97073.03;173955;28;1140;-56
2022/02/04 01:30:00;;;;;;;;;;;;;;;24.70;31.64;97073.03;174004;28;1100;-56
2022/02/04 01:30:14;;;;;;;;;;;;;;;24.71;31.75;97075.56;173084;28;4418;-57
2022/02/04 01:30:25;;;;;;;;;;;;;;;24.72;31.73;97071.09;173656;28;1026;-56
2022/02/04 01:30:34;;;;;;;;;;;;;;;24.74;31.59;97074.47;173746;28;1172;-56
2022/02/04 01:30:41;;;;;;;;;;;;;;;24.72;31.48;97074.59;173527;28;848;-57
2022/02/04 01:30:46;;;;;;;;;;;;;;;24.73;31.37;97075.44;174097;28;948;-56
2022/02/04 01:30:53;;;;;;;;;;;;;;;24.73;31.56;97068.38;173409;28;971;-57
2022/02/04 01:30:58;;;;;;;;;;;;;;;24.74;31.72;97071.84;173332;28;1329;-57
2022/02/04 01:31:03;;;;;;;;;;;;;;;24.74;31.75;97070.03;173360;28;1005;-56
2022/02/04 01:31:11;;;;;;;;;;;;;;;24.75;31.72;97073.50;173952;28;1200;-55
2022/02/04 01:31:19;;;;;;;;;;;;;;;24.73;31.64;97076.28;173471;28;1141;-56
2022/02/04 01:31:24;;;;;;;;;;;;;;;24.73;31.49;97070.19;174116;28;836;-56
2022/02/04 01:31:31;;;;;;;;;;;;;;;24.73;31.78;97070.19;173916;28;1097;-57
2022/02/04 01:31:36;;;;;;;;;;;;;;;24.73;31.53;97072.81;174059;28;848;-56
2022/02/04 01:31:42;;;;;;;;;;;;;;;24.73;31.87;97072.81;173645;28;1021;-56
2022/02/04 01:31:48;;;;;;;;;;;;;;;24.73;31.54;97071.00;174027;28;899;-55
2022/02/04 01:31:53;;;;;;;;;;;;;;;24.74;31.71;97071.84;173593;28;1065;-56
2022/02/04 01:31:58;;;;;;;;;;;;;;;24.73;31.52;97073.66;174144;28;892;-55
2022/02/04 01:32:05;;;;;;;;;;;;;;;24.74;31.76;97067.41;173464;28;1150;-56
2022/02/04 01:32:11;;;;;;;;;;;;;;;24.74;31.46;97067.41;173426;28;1317;-53
2022/02/04 01:32:16;;;;;;;;;;;;;;;24.74;31.52;97070.03;173500;28;1224;-56
2022/02/04 01:32:21;;;;;;;;;;;;;;;24.74;31.52;97067.41;174168;28;850;-56
2022/02/04 01:32:29;;;;;;;;;;;;;;;24.73;31.49;97067.53;174103;28;1953;-56
2022/02/04 01:32:34;;;;;;;;;;;;;;;24.74;31.83;97071.84;173525;28;821;-55
2022/02/04 01:32:40;;;;;;;;;;;;;;;24.75;31.66;97074.34;174007;28;1167;-56
2022/02/04 01:32:45;;;;;;;;;;;;;;;24.75;31.43;97073.50;173441;28;1036;-56
2022/02/04 01:32:50;;;;;;;;;;;;;;;24.74;31.54;97071.84;173881;28;885;-56
2022/02/04 01:32:56;;;;;;;;;;;;;;;24.75;31.75;97073.50;173446;28;1278;-56
2022/02/04 01:33:03;;;;;;;;;;;;;;;24.76;31.57;97069.91;173292;28;1038;-56
2022/02/04 01:33:12;;;;;;;;;;;;;;;24.76;31.83;97070.75;173493;28;873;-55
2022/02/04 01:33:17;;;;;;;;;;;;;;;24.77;31.61;97069.78;173812;28;1113;-57
2022/02/04 01:33:22;;;;;;;;;;;;;;;24.77;31.50;97072.41;174094;28;841;-55
2022/02/04 01:33:28;;;;;;;;;;;;;;;24.76;31.38;97065.47;174008;28;1133;-55
2022/02/04 01:33:33;;;;;;;;;;;;;;;24.76;31.69;97072.53;173370;28;880;-57
2022/02/04 01:33:39;;;;;;;;;;;;;;;24.75;31.71;97074.34;173504;28;1081;-56
2022/02/04 01:33:44;;;;;;;;;;;;;;;24.76;31.51;97067.28;174110;28;872;-56
2022/02/04 01:33:50;;;;;;;;;;;;;;;24.76;31.38;97068.09;173298;28;1385;-56
2022/02/04 01:33:55;;;;;;;;;;;;;;;24.77;31.50;97067.13;173694;28;817;-56
2022/02/04 01:34:01;;;;;;;;;;;;;;;24.76;31.57;97065.47;173266;28;4425;-55
2022/02/04 01:34:06;;;;;;;;;;;;;;;24.77;31.63;97067.13;174023;28;1351;-58
2022/02/04 01:34:11;;;;;;;;;;;;;;;24.78;31.74;97067.97;174183;28;867;-56
2022/02/04 01:34:17;;;;;;;;;;;;;;;24.78;31.71;97068.81;173619;28;1160;-55
2022/02/04 01:34:23;;;;;;;;;;;;;;;24.77;31.72;97064.50;173423;28;785;-56
2022/02/04 01:34:28;;;;;;;;;;;;;;;24.77;31.32;97061.88;173772;28;983;-56
2022/02/04 01:34:33;;;;;;;;;;;;;;;24.78;31.41;97076.72;173613;28;1524;-56
2022/02/04 01:34:38;;;;;;;;;;;;;;;24.77;31.55;97069.78;173480;28;1010;-55
2022/02/04 01:34:43;;;;;;;;;;;;;;;24.78;31.70;97062.69;173455;28;862;-56
2022/02/04 01:34:49;;;;;;;;;;;;;;;24.78;31.65;97068.81;173367;28;1167;-56
2022/02/04 01:34:54;;;;;;;;;;;;;;;24.79;31.37;97065.19;173613;28;940;-56
2022/02/04 01:34:59;;;;;;;;;;;;;;;24.78;31.48;97063.53;174008;28;825;-56
2022/02/04 01:35:04;;;;;;;;;;;;;;;24.79;31.35;97067.84;173964;28;971;-56
2022/02/04 01:35:10;;;;;;;;;;;;;;;24.79;31.70;97070.47;174115;28;923;-56
2022/02/04 01:35:15;;;;;;;;;;;;;;;24.78;31.51;97070.59;173760;28;1176;-56
2022/02/04 01:35:21;;;;;;;;;;;;;;;24.77;31.41;97072.41;173451;28;941;-56
2022/02/04 01:35:26;;;;;;;;;;;;;;;24.77;31.72;97061.88;173785;28;1098;-55
2022/02/04 01:35:32;;;;;;;;;;;;;;;24.77;31.51;97064.50;174075;28;781;-56
2022/02/04 01:35:37;;;;;;;;;;;;;;;24.76;31.70;97060.19;174130;28;1192;-55
2022/02/04 01:35:42;;;;;;;;;;;;;;;24.74;31.46;97070.03;174109;28;876;-55
2022/02/04 01:35:47;;;;;;;;;;;;;;;24.73;31.90;97060.47;173987;28;1057;-56
2022/02/04 01:35:54;;;;;;;;;;;;;;;24.74;31.66;97064.78;173368;28;824;-55
2022/02/04 01:36:00;;;;;;;;;;;;;;;24.75;31.50;97066.44;173258;28;1153;-57
2022/02/04 01:36:05;;;;;;;;;;;;;;;24.76;31.65;97064.63;173513;28;837;-56
2022/02/04 01:36:10;;;;;;;;;;;;;;;24.77;31.51;97068.94;173498;28;1082;-55
2022/02/04 01:36:16;;;;;;;;;;;;;;;24.76;31.79;97062.84;174079;28;1263;-55
2022/02/04 01:36:21;;;;;;;;;;;;;;;24.76;31.52;97065.47;173453;28;857;-56
2022/02/04 01:36:26;;;;;;;;;;;;;;;24.76;31.49;97060.19;173827;28;1180;-56
2022/02/04 01:36:31;;;;;;;;;;;;;;;24.77;31.55;97061.88;174127;28;491;-55
2022/02/04 01:36:36;;;;;;;;;;;;;;;24.78;31.44;97063.53;173770;28;1263;-56
2022/02/04 01:36:41;;;;;;;;;;;;;;;24.78;31.44;97060.91;173456;28;862;-56
2022/02/04 01:36:47;;;;;;;;;;;;;;;24.77;31.37;97064.50;173454;28;1011;-55
2022/02/04 01:36:52;;;;;;;;;;;;;;;24.78;31.62;97060.06;173355;28;873;-56
2022/02/04 01:36:57;;;;;;;;;;;;;;;24.78;31.55;97066.16;173433;28;821;-56
2022/02/04 01:37:02;;;;;;;;;;;;;;;24.78;31.56;97063.53;173398;28;1172;-56
2022/02/04 01:37:07;;;;;;;;;;;;;;;24.79;31.68;97062.56;173469;28;1000;-56
2022/02/04 01:37:13;;;;;;;;;;;;;;;24.79;31.57;97061.72;173625;28;1193;-55
2022/02/04 01:37:18;;;;;;;;;;;;;;;24.78;31.41;97066.16;173521;28;821;-57
2022/02/04 01:37:26;;;;;;;;;;;;;;;24.76;31.45;97064.63;173609;28;1113;-55
2022/02/04 01:37:31;;;;;;;;;;;;;;;24.77;31.84;97072.41;174210;28;845;-56
2022/02/04 01:37:36;;;;;;;;;;;;;;;24.78;31.49;97058.25;173632;28;1085;-55
2022/02/04 01:37:41;;;;;;;;;;;;;;;24.79;31.44;97061.72;173205;28;1386;-56
2022/02/04 01:37:47;;;;;;;;;;;;;;;24.78;31.41;97054.78;173708;28;883;-56
2022/02/04 01:37:52;;;;;;;;;;;;;;;24.78;31.45;97060.91;174081;28;892;-57
2022/02/04 01:37:57;;;;;;;;;;;;;;;24.79;31.43;97059.09;174054;28;1183;-56
2022/02/04 01:38:02;;;;;;;;;;;;;;;24.78;31.61;97068.81;173085;28;4446;-56
2022/02/04 01:38:07;;;;;;;;;;;;;;;24.81;31.68;97062.47;173478;28;880;-56
2022/02/04 01:38:13;;;;;;;;;;;;;;;24.79;31.73;97059.94;173923;28;1220;-55
2022/02/04 01:38:18;;;;;;;;;;;;;;;24.78;31.43;97055.63;174164;28;643;-56
2022/02/04 01:38:23;;;;;;;;;;;;;;;24.78;31.74;97060.06;173697;28;1156;-56
2022/02/04 01:38:28;;;;;;;;;;;;;;;24.78;31.43;97057.41;173407;28;809;-56
2022/02/04 01:38:34;;;;;;;;;;;;;;;24.77;31.71;97061.03;173635;28;1133;-57
2022/02/04 01:38:39;;;;;;;;;;;;;;;24.77;31.59;97058.38;173640;28;928;-55
2022/02/04 01:38:44;;;;;;;;;;;;;;;24.77;31.62;97058.38;173441;28;1125;-54
2022/02/04 01:38:49;;;;;;;;;;;;;;;24.77;31.71;97061.03;173706;28;876;-56
2022/02/04 01:38:55;;;;;;;;;;;;;;;24.77;31.55;97061.88;173219;28;881;-56
2022/02/04 01:39:00;;;;;;;;;;;;;;;24.77;31.85;97066.31;173625;28;1049;-56
2022/02/04 01:39:05;;;;;;;;;;;;;;;24.75;31.79;97057.69;173425;28;1583;-56
2022/02/04 01:39:11;;;;;;;;;;;;;;;24.75;31.73;97053.25;173886;28;1188;-57
2022/02/04 01:39:16;;;;;;;;;;;;;;;24.75;31.64;97058.53;174134;28;813;-57
2022/02/04 01:39:21;;;;;;;;;;;;;;;24.75;31.44;97053.25;173859;28;1176;-56
2022/02/04 01:39:26;;;;;;;;;;;;;;;24.75;31.58;97058.53;173391;28;818;-56
2022/02/04 01:39:31;;;;;;;;;;;;;;;24.75;31.71;97063.81;173488;28;873;-55
2022/02/04 01:39:37;;;;;;;;;;;;;;;24.77;31.56;97059.22;174142;28;885;-56
2022/02/04 01:39:42;;;;;;;;;;;;;;;24.77;31.43;97064.50;174131;28;967;-57
2022/02/04 01:39:47;;;;;;;;;;;;;;;24.78;31.63;97054.78;173472;28;1231;-56
2022/02/04 01:39:52;;;;;;;;;;;;;;;24.79;31.50;97059.09;173316;28;931;-56
2022/02/04 01:39:57;;;;;;;;;;;;;;;24.78;31.62;97057.41;173826;28;1164;-55
2022/02/04 01:40:04;;;;;;;;;;;;;;;24.78;31.78;97054.78;173415;28;978;-55
2022/02/04 01:40:09;;;;;;;;;;;;;;;24.76;31.48;97057.56;173772;28;1204;-56
2022/02/04 01:40:14;;;;;;;;;;;;;;;24.77;31.79;97061.03;174138;28;872;-56
2022/02/04 01:40:19;;;;;;;;;;;;;;;24.78;31.68;97060.06;173888;28;1061;-56
2022/02/04 01:40:24;;;;;;;;;;;;;;;24.77;31.43;97068.94;173421;28;932;-56
2022/02/04 01:40:30;;;;;;;;;;;;;;;24.77;31.48;97056.59;173351;28;869;-55
2022/02/04 01:40:35;;;;;;;;;;;;;;;24.76;31.73;97054.91;173506;28;936;-56
2022/02/04 01:40:40;;;;;;;;;;;;;;;24.75;31.69;97058.53;173468;28;947;-57
2022/02/04 01:40:45;;;;;;;;;;;;;;;24.77;31.63;97055.75;173941;28;1153;-56
2022/02/04 01:40:50;;;;;;;;;;;;;;;24.75;31.46;97053.25;174058;28;937;-56
2022/02/04 01:40:56;;;;;;;;;;;;;;;24.76;31.55;97060.19;173643;28;1136;-57
2022/02/04 01:41:01;;;;;;;;;;;;;;;24.77;31.46;97061.88;173337;28;1206;-56
2022/02/04 01:41:08;;;;;;;;;;;;;;;24.79;31.82;97056.47;173573;28;1137;-56
2022/02/04 01:41:13;;;;;;;;;;;;;;;24.78;31.48;97055.63;174119;28;873;-56
2022/02/04 01:41:18;;;;;;;;;;;;;;;24.77;31.64;97064.50;173878;28;1168;-56
2022/02/04 01:41:23;;;;;;;;;;;;;;;24.77;31.65;97056.59;173418;28;806;-56
2022/02/04 01:41:29;;;;;;;;;;;;;;;24.77;31.64;97059.22;173398;28;1199;-56
2022/02/04 01:41:34;;;;;;;;;;;;;;;24.76;31.43;97060.19;174133;28;876;-57
2022/02/04 01:41:39;;;;;;;;;;;;;;;24.77;31.64;97053.94;174175;28;848;-56
2022/02/04 01:41:44;;;;;;;;;;;;;;;24.77;31.42;97056.59;173520;28;1085;-55
2022/02/04 01:41:49;;;;;;;;;;;;;;;24.78;31.75;97054.78;173388;28;956;-57
2022/02/04 01:41:55;;;;;;;;;;;;;;;24.77;31.75;97056.59;173171;28;1009;-56
2022/02/04 01:42:00;;;;;;;;;;;;;;;24.76;31.55;97059.34;172769;28;4220;-56